createdAt,value
2023-05-06T00:00:02.387Z,13.67
2023-05-06T00:03:13.263Z,13.72
2023-05-06T00:06:14.974Z,13.75
2023-05-06T00:09:16.629Z,13.82
2023-05-06T00:12:18.171Z,13.88
2023-05-06T00:15:19.660Z,13.94
2023-05-06T00:18:22.798Z,13.99
2023-05-06T00:21:24.254Z,14.03
2023-05-06T00:24:25.758Z,14.08
2023-05-06T00:27:27.284Z,14.03
2023-05-06T00:30:29.442Z,13.86
2023-05-06T00:33:30.949Z,13.85
2023-05-06T00:36:32.644Z,13.90
2023-05-06T00:39:34.614Z,13.92
2023-05-06T00:42:36.456Z,13.93
2023-05-06T00:45:38.715Z,13.95
2023-05-06T00:48:40.636Z,14.00
2023-05-06T00:51:42.278Z,13.96
2023-05-06T00:54:43.792Z,13.91
2023-05-06T00:57:45.450Z,13.93
2023-05-06T01:00:47.270Z,13.93
2023-05-06T01:03:48.961Z,13.88
2023-05-06T01:07:18.029Z,13.79
2023-05-06T01:10:53.407Z,13.79
2023-05-06T01:14:11.023Z,13.79
2023-05-06T01:17:16.932Z,13.76
2023-05-06T01:20:21.234Z,13.81
2023-05-06T01:23:22.826Z,13.86
2023-05-06T01:26:26.341Z,13.79
2023-05-06T01:29:28.226Z,13.71
2023-05-06T01:32:48.465Z,13.70
2023-05-06T01:35:56.518Z,13.69
2023-05-06T01:39:12.153Z,13.71
2023-05-06T01:42:13.939Z,13.78
2023-05-06T01:45:17.827Z,13.81
2023-05-06T01:48:24.482Z,13.79
2023-05-06T01:51:25.962Z,13.71
2023-05-06T01:54:27.611Z,13.61
2023-05-06T01:57:29.033Z,13.52
2023-05-06T02:00:30.696Z,13.39
2023-05-06T02:03:32.251Z,13.29
2023-05-06T02:06:33.881Z,13.22
2023-05-06T02:09:35.393Z,13.26
2023-05-06T02:12:38.072Z,13.38
2023-05-06T02:15:39.632Z,13.47
2023-05-06T02:18:44.223Z,13.44
2023-05-06T02:21:46.114Z,13.40
2023-05-06T02:24:47.619Z,13.42
2023-05-06T02:27:49.119Z,13.41
2023-05-06T02:30:57.760Z,13.45
2023-05-06T02:33:59.290Z,13.47
2023-05-06T02:37:00.807Z,13.47
2023-05-06T02:40:02.386Z,13.47
2023-05-06T02:43:06.816Z,13.48
2023-05-06T02:46:08.956Z,13.47
2023-05-06T02:49:10.484Z,13.51
2023-05-06T02:52:11.928Z,13.51
2023-05-06T02:55:13.377Z,13.48
2023-05-06T02:58:14.901Z,13.42
2023-05-06T03:01:16.330Z,13.31
2023-05-06T03:04:18.421Z,13.17
2023-05-06T03:07:20.146Z,13.04
2023-05-06T03:10:21.720Z,12.92
2023-05-06T03:13:23.421Z,12.92
2023-05-06T03:16:25.392Z,12.96
2023-05-06T03:19:29.919Z,13.05
2023-05-06T03:22:32.308Z,13.09
2023-05-06T03:25:34.116Z,13.08
2023-05-06T03:28:35.654Z,13.09
2023-05-06T03:31:38.975Z,13.09
2023-05-06T03:34:40.724Z,13.02
2023-05-06T03:37:44.382Z,13.03
2023-05-06T03:40:46.130Z,13.07
2023-05-06T03:43:49.526Z,13.16
2023-05-06T03:46:53.963Z,13.23
2023-05-06T03:49:56.226Z,13.20
2023-05-06T03:52:57.873Z,13.23
2023-05-06T03:56:01.957Z,13.18
2023-05-06T03:59:05.276Z,13.20
2023-05-06T04:02:07.069Z,13.25
2023-05-06T04:05:11.347Z,13.28
2023-05-06T04:08:13.074Z,13.31
2023-05-06T04:11:14.997Z,13.36
2023-05-06T04:14:16.563Z,13.39
2023-05-06T04:17:18.606Z,13.41
2023-05-06T04:20:21.613Z,13.44
2023-05-06T04:23:23.712Z,13.46
2023-05-06T04:26:25.936Z,13.46
2023-05-06T04:29:27.487Z,13.50
2023-05-06T04:32:34.113Z,13.57
2023-05-06T04:35:37.685Z,13.66
2023-05-06T04:38:39.971Z,13.64
2023-05-06T04:41:41.839Z,13.61
2023-05-06T04:44:45.726Z,13.61
2023-05-06T04:47:47.569Z,13.56
2023-05-06T04:50:51.011Z,13.53
2023-05-06T04:53:52.806Z,13.52
2023-05-06T04:56:54.593Z,13.52
2023-05-06T04:59:56.176Z,13.55
2023-05-06T05:02:57.811Z,13.63
2023-05-06T05:05:59.422Z,13.70
2023-05-06T05:09:01.974Z,13.89
2023-05-06T05:12:05.762Z,14.08
2023-05-06T05:15:11.275Z,14.22
2023-05-06T05:18:13.279Z,14.29
2023-05-06T05:21:15.738Z,14.26
2023-05-06T05:24:17.451Z,14.28
2023-05-06T05:27:18.969Z,14.28
2023-05-06T05:30:21.140Z,14.27
2023-05-06T05:33:22.785Z,14.25
2023-05-06T05:36:25.386Z,14.32
2023-05-06T05:39:29.468Z,14.49
2023-05-06T05:42:33.700Z,14.59
2023-05-06T05:45:39.785Z,14.71
2023-05-06T05:48:43.668Z,14.76
2023-05-06T05:51:45.954Z,14.83
2023-05-06T05:54:50.738Z,14.80
2023-05-06T05:57:52.353Z,14.68
2023-05-06T06:00:56.154Z,14.55
2023-05-06T06:03:59.877Z,14.50
2023-05-06T06:07:04.519Z,14.46
2023-05-06T06:10:10.210Z,14.38
2023-05-06T06:13:11.914Z,14.39
2023-05-06T06:16:13.501Z,14.49
2023-05-06T06:19:15.931Z,14.58
2023-05-06T06:22:18.045Z,14.70
2023-05-06T06:25:21.412Z,14.87
2023-05-06T06:28:22.948Z,14.96
2023-05-06T06:31:24.545Z,14.97
2023-05-06T06:34:26.197Z,15.02
2023-05-06T06:37:27.645Z,15.12
2023-05-06T06:40:29.107Z,15.30
2023-05-06T06:43:30.681Z,15.40
2023-05-06T06:46:36.918Z,15.63
2023-05-06T06:49:39.385Z,16.03
2023-05-06T06:52:40.897Z,16.33
2023-05-06T06:55:43.840Z,16.28
2023-05-06T06:58:45.398Z,16.22
2023-05-06T07:01:46.940Z,16.19
2023-05-06T07:04:49.143Z,16.24
2023-05-06T07:07:50.644Z,16.31
2023-05-06T07:10:52.252Z,16.40
2023-05-06T07:13:53.722Z,16.34
2023-05-06T07:16:55.924Z,16.60
2023-05-06T07:19:57.335Z,16.80
2023-05-06T07:22:58.899Z,16.64
2023-05-06T07:26:00.458Z,16.73
2023-05-06T07:29:02.047Z,16.88
2023-05-06T07:32:03.877Z,17.07
2023-05-06T07:35:05.676Z,17.02
2023-05-06T07:38:07.146Z,16.86
2023-05-06T07:41:08.634Z,16.87
2023-05-06T07:44:10.169Z,17.15
2023-05-06T07:47:11.737Z,17.21
2023-05-06T07:50:13.378Z,17.20
2023-05-06T07:53:14.828Z,17.45
2023-05-06T07:56:17.244Z,17.37
2023-05-06T07:59:18.887Z,17.29
2023-05-06T08:02:20.497Z,17.42
2023-05-06T08:05:22.040Z,17.13
2023-05-06T08:08:23.899Z,17.08
2023-05-06T08:11:25.465Z,17.46
2023-05-06T08:14:27.071Z,17.79
2023-05-06T08:17:28.645Z,17.79
2023-05-06T08:20:30.241Z,17.71
2023-05-06T08:23:32.251Z,17.56
2023-05-06T08:26:33.770Z,17.25
2023-05-06T08:29:35.310Z,17.15
2023-05-06T08:32:36.885Z,17.39
2023-05-06T08:35:38.382Z,18.01
2023-05-06T08:38:39.912Z,18.52
2023-05-06T08:41:45.032Z,18.71
2023-05-06T08:44:47.261Z,18.84
2023-05-06T08:47:49.037Z,18.74
2023-05-06T08:50:51.046Z,18.65
2023-05-06T08:53:54.710Z,18.72
2023-05-06T08:56:58.762Z,18.46
2023-05-06T09:00:00.837Z,18.14
2023-05-06T09:03:02.494Z,18.28
2023-05-06T09:06:04.744Z,18.66
2023-05-06T09:09:06.404Z,18.95
2023-05-06T09:12:14.876Z,19.04
2023-05-06T09:15:16.484Z,18.99
2023-05-06T09:18:17.951Z,19.23
2023-05-06T09:21:19.440Z,19.27
2023-05-06T09:24:21.198Z,19.27
2023-05-06T09:27:34.956Z,19.01
2023-05-06T09:30:44.858Z,19.01
2023-05-06T09:33:46.451Z,19.04
2023-05-06T09:36:47.930Z,19.29
2023-05-06T09:39:57.659Z,19.29
2023-05-06T09:43:00.256Z,19.33
2023-05-06T09:46:02.222Z,19.22
2023-05-06T09:49:03.928Z,19.23
2023-05-06T09:52:07.393Z,19.49
2023-05-06T09:55:10.989Z,19.85
2023-05-06T09:58:13.236Z,19.91
2023-05-06T10:01:25.154Z,20.14
2023-05-06T10:04:37.092Z,20.56
2023-05-06T10:07:40.805Z,20.48
2023-05-06T10:10:43.066Z,20.45
2023-05-06T10:13:45.478Z,20.52
2023-05-06T10:16:48.744Z,20.56
2023-05-06T10:19:55.367Z,20.74
2023-05-06T10:23:05.819Z,20.70
2023-05-06T10:26:11.430Z,20.65
2023-05-06T10:29:13.553Z,20.61
2023-05-06T10:32:17.977Z,20.72
2023-05-06T10:35:26.179Z,20.69
2023-05-06T10:38:42.413Z,20.68
2023-05-06T10:41:43.986Z,20.92
2023-05-06T10:44:58.564Z,20.80
2023-05-06T10:48:02.900Z,20.85
2023-05-06T10:51:16.547Z,20.61
2023-05-06T10:54:19.231Z,20.55
2023-05-06T10:57:26.544Z,20.95
2023-05-06T11:00:34.767Z,21.29
2023-05-06T11:03:36.403Z,21.63
2023-05-06T11:06:46.203Z,21.31
2023-05-06T11:10:08.205Z,21.09
2023-05-06T11:13:27.803Z,21.00
2023-05-06T11:16:51.610Z,21.39
2023-05-06T11:20:19.695Z,21.46
2023-05-06T11:23:21.152Z,21.63
2023-05-06T11:26:24.389Z,21.77
2023-05-06T11:29:26.819Z,21.79
2023-05-06T11:32:29.374Z,21.75
2023-05-06T11:35:37.875Z,21.70
2023-05-06T11:38:46.437Z,21.69
2023-05-06T11:41:47.973Z,21.71
2023-05-06T11:44:49.499Z,22.01
2023-05-06T11:47:54.458Z,22.01
2023-05-06T11:50:55.956Z,22.18
2023-05-06T11:54:06.324Z,22.65
2023-05-06T11:57:08.809Z,23.17
2023-05-06T12:00:11.872Z,23.24
2023-05-06T12:03:16.583Z,22.87
2023-05-06T12:06:19.115Z,22.58
2023-05-06T12:09:22.304Z,22.46
2023-05-06T12:12:24.513Z,22.59
2023-05-06T12:15:26.575Z,22.93
2023-05-06T12:18:28.464Z,23.11
2023-05-06T12:21:30.602Z,23.22
2023-05-06T12:24:32.090Z,22.94
2023-05-06T12:27:35.658Z,22.80
2023-05-06T12:30:37.255Z,22.88
2023-05-06T12:33:51.630Z,23.07
2023-05-06T12:36:53.215Z,23.24
2023-05-06T12:39:58.438Z,23.06
2023-05-06T12:43:00.881Z,23.17
2023-05-06T12:46:07.183Z,23.50
2023-05-06T12:49:08.792Z,23.68
2023-05-06T12:52:10.793Z,23.73
2023-05-06T12:55:13.119Z,23.78
2023-05-06T12:58:16.662Z,23.69
2023-05-06T13:01:18.859Z,23.77
2023-05-06T13:04:21.257Z,24.16
2023-05-06T13:07:22.838Z,23.97
2023-05-06T13:10:24.393Z,24.11
2023-05-06T13:13:26.060Z,23.93
2023-05-06T13:16:29.565Z,24.20
2023-05-06T13:19:33.202Z,24.18
2023-05-06T13:22:46.971Z,24.61
2023-05-06T13:26:04.123Z,24.70
2023-05-06T13:29:06.971Z,24.98
2023-05-06T13:32:09.088Z,24.89
2023-05-06T13:35:11.078Z,24.66
2023-05-06T13:38:12.765Z,24.67
2023-05-06T13:41:14.199Z,24.84
2023-05-06T13:44:19.309Z,24.94
2023-05-06T13:47:20.987Z,24.74
2023-05-06T13:50:22.450Z,24.84
2023-05-06T13:53:23.909Z,24.39
2023-05-06T13:56:25.662Z,24.45
2023-05-06T13:59:27.160Z,24.65
2023-05-06T14:02:29.351Z,24.86
2023-05-06T14:05:30.949Z,25.47
2023-05-06T14:08:32.947Z,25.62
2023-05-06T14:11:34.453Z,25.36
2023-05-06T14:14:35.942Z,25.02
2023-05-06T14:17:38.248Z,25.02
2023-05-06T14:20:39.809Z,25.36
2023-05-06T14:23:41.276Z,25.37
2023-05-06T14:26:42.788Z,25.54
2023-05-06T14:29:46.044Z,25.99
2023-05-06T14:32:47.591Z,25.98
2023-05-06T14:35:51.955Z,25.98
2023-05-06T14:38:53.356Z,25.76
2023-05-06T14:41:54.859Z,25.96
2023-05-06T14:44:56.797Z,25.87
2023-05-06T14:47:58.370Z,25.70
2023-05-06T14:50:59.901Z,25.42
2023-05-06T14:54:01.451Z,25.30
2023-05-06T14:57:03.492Z,25.54
2023-05-06T15:00:10.050Z,25.25
2023-05-06T15:03:11.683Z,25.03
2023-05-06T15:06:13.195Z,24.97
2023-05-06T15:09:14.682Z,24.97
2023-05-06T15:12:16.258Z,25.33
2023-05-06T15:15:17.748Z,25.60
2023-05-06T15:18:19.226Z,25.06
2023-05-06T15:21:20.750Z,24.79
2023-05-06T15:24:22.986Z,24.84
2023-05-06T15:27:24.463Z,24.76
2023-05-06T15:30:25.949Z,24.56
2023-05-06T15:33:27.638Z,24.48
2023-05-06T15:36:29.075Z,24.73
2023-05-06T15:39:37.554Z,24.71
2023-05-06T15:42:40.006Z,24.19
2023-05-06T15:45:41.494Z,23.91
2023-05-06T15:48:43.131Z,23.58
2023-05-06T15:51:44.669Z,23.44
2023-05-06T15:54:49.555Z,23.40
2023-05-06T15:57:53.562Z,23.60
2023-05-06T16:00:55.081Z,23.66
2023-05-06T16:03:56.752Z,23.54
2023-05-06T16:06:58.414Z,23.43
2023-05-06T16:09:59.885Z,23.57
2023-05-06T16:13:01.376Z,23.86
2023-05-06T16:16:03.065Z,23.86
2023-05-06T16:19:04.764Z,23.94
2023-05-06T16:22:06.428Z,24.24
2023-05-06T16:25:08.272Z,24.51
2023-05-06T16:28:09.896Z,25.11
2023-05-06T16:31:11.531Z,25.64
2023-05-06T16:34:13.155Z,26.94
2023-05-06T16:37:15.563Z,27.76
2023-05-06T16:40:18.967Z,28.60
2023-05-06T16:43:20.652Z,28.27
2023-05-06T16:46:24.229Z,26.85
2023-05-06T16:49:28.007Z,25.52
2023-05-06T16:52:30.745Z,24.93
2023-05-06T16:55:32.536Z,24.73
2023-05-06T16:58:34.151Z,24.48
2023-05-06T17:01:35.700Z,24.45
2023-05-06T17:04:37.620Z,24.37
2023-05-06T17:07:39.135Z,24.47
2023-05-06T17:10:40.726Z,24.54
2023-05-06T17:13:42.188Z,24.37
2023-05-06T17:16:43.797Z,24.33
2023-05-06T17:19:45.370Z,24.12
2023-05-06T17:22:47.037Z,23.83
2023-05-06T17:25:48.676Z,23.90
2023-05-06T17:28:50.856Z,23.93
2023-05-06T17:31:52.378Z,24.42
2023-05-06T17:34:53.899Z,25.00
2023-05-06T17:37:55.985Z,25.22
2023-05-06T17:40:57.541Z,24.85
2023-05-06T17:43:59.412Z,24.37
2023-05-06T17:47:01.226Z,23.91
2023-05-06T17:50:03.179Z,23.60
2023-05-06T17:53:04.677Z,23.02
2023-05-06T17:56:06.403Z,22.54
2023-05-06T17:59:07.929Z,22.13
2023-05-06T18:02:13.810Z,21.79
2023-05-06T18:05:16.565Z,21.46
2023-05-06T18:08:18.244Z,21.17
2023-05-06T18:11:19.739Z,20.81
2023-05-06T18:14:21.233Z,20.49
2023-05-06T18:17:22.718Z,20.18
2023-05-06T18:20:24.222Z,19.91
2023-05-06T18:23:26.354Z,19.74
2023-05-06T18:26:44.728Z,19.52
2023-05-06T18:29:47.754Z,18.97
2023-05-06T18:32:51.015Z,18.70
2023-05-06T18:35:53.515Z,18.51
2023-05-06T18:38:54.987Z,18.30
2023-05-06T18:41:56.526Z,18.05
2023-05-06T18:44:58.090Z,17.87
2023-05-06T18:47:59.765Z,17.67
2023-05-06T18:51:16.951Z,17.48
2023-05-06T18:54:21.772Z,17.25
2023-05-06T18:57:24.311Z,17.10
2023-05-06T19:00:26.360Z,16.96
2023-05-06T19:03:28.368Z,16.74
2023-05-06T19:06:31.520Z,16.66
2023-05-06T19:09:36.837Z,16.55
2023-05-06T19:12:38.430Z,16.40
2023-05-06T19:15:39.946Z,16.30
2023-05-06T19:18:41.533Z,16.20
2023-05-06T19:21:42.926Z,16.13
2023-05-06T19:24:44.582Z,16.01
2023-05-06T19:27:46.204Z,15.85
2023-05-06T19:30:48.595Z,15.76
2023-05-06T19:33:50.362Z,15.64
2023-05-06T19:36:51.853Z,15.63
2023-05-06T19:39:53.253Z,15.62
2023-05-06T19:42:54.916Z,15.53
2023-05-06T19:45:56.654Z,15.44
2023-05-06T19:48:58.368Z,15.36
2023-05-06T19:51:59.848Z,15.24
2023-05-06T19:55:03.856Z,15.08
2023-05-06T19:58:05.346Z,15.07
2023-05-06T20:01:06.919Z,15.00
2023-05-06T20:04:09.664Z,14.87
2023-05-06T20:07:12.764Z,14.76
2023-05-06T20:10:14.549Z,14.69
2023-05-06T20:13:17.720Z,14.66
2023-05-06T20:16:19.335Z,14.60
2023-05-06T20:19:29.119Z,14.54
2023-05-06T20:22:32.276Z,14.41
2023-05-06T20:25:36.784Z,14.27
2023-05-06T20:28:39.145Z,14.14
2023-05-06T20:31:40.793Z,14.10
2023-05-06T20:34:42.979Z,14.15
2023-05-06T20:37:44.729Z,14.07
2023-05-06T20:40:47.369Z,14.00
2023-05-06T20:43:52.752Z,13.97
2023-05-06T20:46:54.274Z,13.98
2023-05-06T20:49:55.725Z,13.92
2023-05-06T20:52:57.174Z,13.89
2023-05-06T20:55:58.630Z,13.78
2023-05-06T20:59:00.145Z,13.67
2023-05-06T21:02:01.916Z,13.62
2023-05-06T21:05:03.658Z,13.54
2023-05-06T21:08:05.069Z,13.47
2023-05-06T21:11:06.878Z,13.39
2023-05-06T21:14:08.629Z,13.47
2023-05-06T21:17:10.521Z,13.46
2023-05-06T21:20:12.563Z,13.31
2023-05-06T21:23:14.341Z,13.21
2023-05-06T21:26:15.954Z,13.23
2023-05-06T21:29:17.366Z,13.23
2023-05-06T21:32:18.968Z,13.14
2023-05-06T21:35:20.683Z,13.06
2023-05-06T21:38:22.155Z,12.99
2023-05-06T21:41:23.580Z,12.95
2023-05-06T21:44:25.124Z,12.93
2023-05-06T21:47:26.651Z,12.93
2023-05-06T21:50:28.256Z,12.72
2023-05-06T21:53:29.750Z,12.67
2023-05-06T21:56:31.217Z,12.66
2023-05-06T21:59:32.633Z,12.62
2023-05-06T22:02:34.166Z,12.59
2023-05-06T22:05:35.704Z,12.61
2023-05-06T22:08:37.244Z,12.54
2023-05-06T22:11:38.851Z,12.47
2023-05-06T22:14:41.787Z,12.42
2023-05-06T22:17:43.508Z,12.40
2023-05-06T22:20:46.603Z,12.36
2023-05-06T22:23:48.072Z,12.24
2023-05-06T22:26:49.734Z,12.24
2023-05-06T22:29:51.297Z,12.25
2023-05-06T22:32:52.889Z,12.21
2023-05-06T22:35:55.367Z,12.22
2023-05-06T22:38:56.881Z,12.21
2023-05-06T22:41:58.371Z,12.16
2023-05-06T22:44:59.868Z,12.12
2023-05-06T22:48:01.456Z,12.00
2023-05-06T22:51:02.977Z,11.97
2023-05-06T22:54:04.848Z,11.98
2023-05-06T22:57:06.591Z,11.86
2023-05-06T23:00:08.767Z,11.93
2023-05-06T23:03:10.633Z,11.98
2023-05-06T23:06:12.203Z,11.97
2023-05-06T23:09:13.643Z,11.94
2023-05-06T23:12:15.129Z,11.90
2023-05-06T23:15:16.613Z,11.88
2023-05-06T23:18:18.995Z,11.80
2023-05-06T23:21:20.503Z,11.72
2023-05-06T23:24:22.040Z,11.62
2023-05-06T23:27:23.487Z,11.48
2023-05-06T23:30:24.925Z,11.52
2023-05-06T23:33:26.731Z,11.48
2023-05-06T23:36:28.298Z,11.53
2023-05-06T23:39:29.760Z,11.59
2023-05-06T23:42:31.232Z,11.58
2023-05-06T23:45:32.731Z,11.53
2023-05-06T23:48:34.664Z,11.51
2023-05-06T23:51:36.182Z,11.51
2023-05-06T23:54:37.645Z,11.56
2023-05-06T23:57:39.149Z,11.47
